Flight Track Log - Related Links

Times and Time Zones

All times are in EDT time to prevent confusion due to time zone crossing. See the N39418 flight status page for this flight to view local times or setup timezone preferences in your user account.

Time Position Orientation Groundspeed Altitude Reporting Facility
EDT Latitude Longitude Course Direction KTS MPH feet Rate Location/Type
Fri 04:20:15 PM 20.7013 -105.2361 42° Northeast  Level FlightAware Approximate
Fri 04:21:15 PM 20.7861 -105.1636 42° Northeast  Level FlightAware Approximate
Fri 04:22:15 PM 20.8709 -105.0911 42° Northeast  Level FlightAware Approximate
Fri 04:23:15 PM 20.9557 -105.0185 42° Northeast  Level FlightAware Approximate
Fri 04:24:15 PM 21.0404 -104.9459 42° Northeast  Level FlightAware Approximate
Fri 04:25:15 PM 21.1251 -104.8731 42° Northeast  Level FlightAware Approximate
Fri 04:26:15 PM 21.2098 -104.8003 43° Northeast  Level FlightAware Approximate
Fri 04:27:15 PM 21.2944 -104.7273 43° Northeast  Level FlightAware Approximate
Fri 04:28:15 PM 21.3790 -104.6543 43° Northeast  Level FlightAware Approximate
Fri 04:29:15 PM 21.4636 -104.5812 43° Northeast  Level FlightAware Approximate
Fri 04:30:15 PM 21.5481 -104.5080 43° Northeast  Level FlightAware Approximate
Fri 04:31:15 PM 21.6326 -104.4348 43° Northeast  Level FlightAware Approximate
Fri 04:32:15 PM 21.7171 -104.3614 43° Northeast  Level FlightAware Approximate
Fri 04:33:15 PM 21.8015 -104.2880 43° Northeast  Level FlightAware Approximate
Fri 04:34:15 PM 21.8860 -104.2144 43° Northeast  Level FlightAware Approximate
Fri 04:35:15 PM 21.9703 -104.1408 43° Northeast  Level FlightAware Approximate
Fri 04:36:15 PM 22.0547 -104.0671 44° Northeast  Level FlightAware Approximate
Fri 04:37:15 PM 22.1390 -103.9933 44° Northeast  Level FlightAware Approximate
Fri 04:38:15 PM 22.2233 -103.9195 44° Northeast  Level FlightAware Approximate
Fri 04:39:15 PM 22.3075 -103.8455 44° Northeast  Level FlightAware Approximate
Fri 04:40:15 PM 22.3917 -103.7715 44° Northeast  Level FlightAware Approximate
Fri 04:41:15 PM 22.4759 -103.6973 44° Northeast  Level FlightAware Approximate
Fri 04:42:15 PM 22.5537 -103.6154 44° Northeast  Level FlightAware Approximate
Fri 04:43:15 PM 22.6314 -103.5333 44° Northeast  Level FlightAware Approximate
Fri 04:44:15 PM 22.7091 -103.4512 44° Northeast  Level FlightAware Approximate
Fri 04:45:15 PM 22.7868 -103.3689 44° Northeast  Level FlightAware Approximate
Fri 04:46:15 PM 22.8644 -103.2866 44° Northeast  Level FlightAware Approximate
Fri 04:47:15 PM 22.9439 -103.2021 44° Northeast  Level FlightAware Approximate
Fri 04:48:15 PM 23.0234 -103.1176 44° Northeast  Level FlightAware Approximate
Fri 04:49:15 PM 23.1023 -103.0323 44° Northeast  Level FlightAware Approximate
Fri 04:50:15 PM 23.1811 -102.9470 44° Northeast  Level FlightAware Approximate
Fri 04:51:15 PM 23.2599 -102.8615 45° Northeast  Level FlightAware Approximate
Fri 04:52:15 PM 23.3386 -102.7760 45° Northeast  Level FlightAware Approximate
Fri 04:53:15 PM 23.4174 -102.6903 45° Northeast  Level FlightAware Approximate
Fri 04:54:15 PM 23.4953 -102.6039 45° Northeast  Level FlightAware Approximate
Fri 04:55:15 PM 23.5733 -102.5173 45° Northeast  Level FlightAware Approximate
Fri 04:56:15 PM 23.6511 -102.4306 45° Northeast  Level FlightAware Approximate
Fri 04:57:15 PM 23.7290 -102.3438 45° Northeast  Level FlightAware Approximate
Fri 04:58:15 PM 23.8068 -102.2569 45° Northeast  Level FlightAware Approximate
Fri 04:59:15 PM 23.8845 -102.1699 45° Northeast  Level FlightAware Approximate
Fri 05:00:15 PM 23.9622 -102.0828 45° Northeast  Level FlightAware Approximate
Fri 05:01:15 PM 24.0398 -101.9956 45° Northeast  Level FlightAware Approximate
Fri 05:02:15 PM 24.1174 -101.9083 44° Northeast  Level FlightAware Approximate
Fri 05:03:15 PM 24.1950 -101.8209 44° Northeast  Level FlightAware Approximate
Fri 05:04:15 PM 24.2724 -101.7333 44° Northeast  Level FlightAware Approximate
Fri 05:05:15 PM 24.3499 -101.6457 44° Northeast  Level FlightAware Approximate
Fri 05:06:15 PM 24.4273 -101.5580 44° Northeast  Level FlightAware Approximate
Fri 05:07:15 PM 24.5046 -101.4701 44° Northeast  Level FlightAware Approximate
Fri 05:08:15 PM 24.5819 -101.3821 44° Northeast  Level FlightAware Approximate
Fri 05:09:15 PM 24.6591 -101.2941 44° Northeast  Level FlightAware Approximate
Fri 05:10:15 PM 24.7363 -101.2059 44° Northeast  Level FlightAware Approximate
Fri 05:11:15 PM 24.8134 -101.1176 44° Northeast  Level FlightAware Approximate
Fri 05:12:15 PM 24.8905 -101.0292 44° Northeast  Level FlightAware Approximate
Fri 05:13:15 PM 24.9676 -100.9407 44° Northeast  Level FlightAware Approximate
Fri 05:14:15 PM 25.0445 -100.8521 43° Northeast  Level FlightAware Approximate
Fri 05:15:15 PM 25.1215 -100.7634 43° Northeast  Level FlightAware Approximate
Fri 05:16:15 PM 25.1983 -100.6746 43° Northeast  Level FlightAware Approximate
Fri 05:17:15 PM 25.2836 -100.5905 43° Northeast  Level FlightAware Approximate
Fri 05:18:15 PM 25.3687 -100.5063 43° Northeast  Level FlightAware Approximate
Fri 05:19:15 PM 25.4539 -100.4220 44° Northeast  Level FlightAware Approximate
Fri 05:20:15 PM 25.5390 -100.3376 44° Northeast  Level FlightAware Approximate
Fri 05:21:15 PM 25.6240 -100.2530 45° Northeast  Level FlightAware Approximate
Fri 05:23:55 PM 25.8725 -99.9792 48° Northeast 452 520 35,000  Level Houston Center
Fri 05:24:55 PM 25.9581 -99.8722 46° Northeast 458 527 35,000 -50 Level Houston Center
Fri 05:25:55 PM 26.0475 -99.7703 48° Northeast 463 533 34,900  Descending Houston Center
Fri 05:26:55 PM 26.1331 -99.6633 47° Northeast 463 533 35,000 50 Climbing Houston Center
Fri 05:27:55 PM 26.2203 -99.5583 48° Northeast 463 533 35,000  Level Houston Center
Fri 05:28:55 PM 26.3056 -99.4511 48° Northeast 463 533 35,000 -50 Level Houston Center
Fri 05:29:55 PM 26.3908 -99.3458 43° Northeast 463 533 34,900  Descending Houston Center
Fri 05:30:55 PM 26.4858 -99.2481 41° Northeast 463 533 35,000 50 Climbing Houston Center
Fri 05:31:55 PM 26.5828 -99.1547 41° Northeast 457 526 35,000  Level Houston Center
Fri 05:32:55 PM 26.6817 -99.0592 41° Northeast 457 526 35,000  Level Houston Center
Fri 05:33:55 PM 26.7808 -98.9611 41° Northeast 465 535 35,000  Level Houston Center
Fri 05:34:55 PM 26.8819 -98.8608 41° Northeast 465 535 35,000  Level Houston Center
Fri 05:35:55 PM 26.9853 -98.7606 41° Northeast 470 541 35,000  Level Houston Center
Fri 05:36:55 PM 27.0861 -98.6619 41° Northeast 476 548 35,000  Level Houston Center
Fri 05:37:55 PM 27.1894 -98.5614 42° Northeast 476 548 35,000  Level Houston Center
Fri 05:38:55 PM 27.2883 -98.4600 40° Northeast 476 548 35,000  Level Houston Center
Fri 05:39:55 PM 27.3933 -98.3614 41° Northeast 476 548 35,000 -50 Level Houston Center
Fri 05:40:55 PM 27.4939 -98.2622 42° Northeast 476 548 34,900  Descending Houston Center
Fri 05:41:55 PM 27.5928 -98.1606 41° Northeast 476 548 35,000 50 Climbing Houston Center
Fri 05:42:55 PM 27.6933 -98.0608 42° Northeast 476 548 35,000  Level Houston Center
Fri 05:43:55 PM 27.7853 -97.9678 41° Northeast 482 555 35,000  Level Houston Center
Fri 05:44:55 PM 27.8858 -97.8681 43° Northeast 482 555 35,000  Level Houston Center
Fri 05:45:55 PM 27.9867 -97.7633 39° Northeast 482 555 35,000  Level Houston Center
Fri 05:46:55 PM 28.0889 -97.6703 42° Northeast 482 555 35,000  Level Houston Center
Fri 05:47:55 PM 28.1892 -97.5675 41° Northeast 477 549 35,000 -50 Level Houston Center
Fri 05:48:55 PM 28.2917 -97.4647 42° Northeast 477 549 34,900 -50 Descending Houston Center
Fri 05:49:55 PM 28.3900 -97.3636 41° Northeast 477 549 34,900  Level Houston Center
Fri 05:50:55 PM 28.4922 -97.2628 42° Northeast 477 549 34,900 -450 Level Houston Center
Fri 05:51:55 PM 28.5925 -97.1594 42° Northeast 477 549 34,000 -950 Descending Houston Center
Fri 05:52:55 PM 28.6925 -97.0556 42° Northeast 477 549 33,000 -1,600 Descending Houston Center
Fri 05:53:55 PM 28.7925 -96.9517 44° Northeast 477 549 30,800 -2,400 Descending Houston Center
Fri 05:54:55 PM 28.8906 -96.8453 42° Northeast 477 549 28,200 -2,450 Descending Houston Center
Fri 05:55:55 PM 28.9861 -96.7478 41° Northeast 471 542 25,900 -2,250 Descending Houston Center
Fri 05:56:55 PM 29.0814 -96.6528 42° Northeast 455 524 23,700 -2,393 Descending Houston Center
Fri 05:58:38 PM 29.2454 -96.4812 42° Northeast 412 474 19,400 -2,436 Descending FlightAware ADS-B
Fri 05:59:08 PM 29.2875 -96.4373 42° Northeast 403 464 18,300 -2,200 Descending FlightAware ADS-B
Fri 05:59:38 PM 29.3285 -96.3945 42° Northeast 397 457 17,200 -2,200 Descending FlightAware ADS-B
Fri 06:00:08 PM 29.3691 -96.3522 42° Northeast 390 449 16,100 -2,164 Descending FlightAware ADS-B
Fri 06:00:39 PM 29.4100 -96.3095 42° Northeast 383 441 15,000 -2,066 Descending FlightAware ADS-B
Fri 06:01:09 PM 29.4491 -96.2687 42° Northeast 379 436 14,000 -2,066 Descending FlightAware ADS-B
Fri 06:01:40 PM 29.4881 -96.2278 42° Northeast 375 432 12,900 -1,770 Descending FlightAware ADS-B
Fri 06:02:10 PM 29.5259 -96.1880 46° Northeast 367 422 12,200 -1,171 Descending FlightAware ADS-B
Fri 06:02:21 PM 29.5398 -96.1712 52° Northeast 365 420 12,100 -545 Descending FlightAware ADS-B
Fri 06:02:32 PM 29.5510 -96.1548 57° Northeast 360 414 12,000 -273 Descending FlightAware ADS-B
Fri 06:02:43 PM 29.5607 -96.1373 60° Northeast 357 411 12,000 143 Level FlightAware ADS-B
Fri 06:03:14 PM 29.5860 -96.0876 60° Northeast 355 409 12,100 -492 Climbing FlightAware ADS-B
Fri 06:03:44 PM 29.6113 -96.0374 60° Northeast 356 410 11,500 -1,500 Descending FlightAware ADS-B
Fri 06:04:14 PM 29.6358 -95.9884 60° Northeast 352 405 10,600 -1,475 Descending FlightAware ADS-B
Fri 06:04:45 PM 29.6603 -95.9399 60° Northeast 345 397 10,000 -590 Descending FlightAware ADS-B
Fri 06:05:15 PM 29.6844 -95.8921 60° Northeast 343 395 10,000 100 Level FlightAware ADS-B
Fri 06:05:45 PM 29.7081 -95.8447 60° Northeast 343 395 10,100 98 Climbing FlightAware ADS-B
Fri 06:06:16 PM 29.7326 -95.7958 60° Northeast 344 396 10,100 -98 Level FlightAware ADS-B
Fri 06:06:46 PM 29.7558 -95.7496 60° Northeast 320 368 10,000 -261 Descending FlightAware ADS-B
Fri 06:07:02 PM 29.7672 -95.7269 60° Northeast 309 356 9,900 -774 Descending FlightAware ADS-B
Fri 06:07:17 PM 29.7780 -95.7051 60° Northeast 304 350 9,600 -1,161 Descending FlightAware ADS-B
Fri 06:07:33 PM 29.7888 -95.6835 60° Northeast 299 344 9,300 -968 Descending FlightAware ADS-B
Fri 06:07:48 PM 29.7993 -95.6624 60° Northeast 294 338 9,100 -968 Descending FlightAware ADS-B
Fri 06:08:04 PM 29.8098 -95.6415 60° Northeast 290 334 8,800 -1,313 Descending FlightAware ADS-B
Fri 06:08:20 PM 29.8204 -95.6201 60° Northeast 289 333 8,400 -1,313 Descending FlightAware ADS-B
Fri 06:08:36 PM 29.8311 -95.5984 60° Northeast 287 330 8,100 -1,313 Descending FlightAware ADS-B
Fri 06:08:52 PM 29.8413 -95.5781 60° Northeast 286 329 7,700 -1,355 Descending FlightAware ADS-B
Fri 06:09:07 PM 29.8517 -95.5572 60° Northeast 285 328 7,400 -1,333 Descending FlightAware ADS-B
Fri 06:09:28 PM 29.8648 -95.5309 60° Northeast 284 327 6,900 -1,333 Descending FlightAware ADS-B
Fri 06:09:43 PM 29.8749 -95.5109 60° Northeast 284 327 6,600 -1,161 Descending FlightAware ADS-B
Fri 06:09:59 PM 29.8854 -95.4897 62° Northeast 283 326 6,300 -1,364 Descending FlightAware ADS-B
Fri 06:10:05 PM 29.8894 -95.4810 68° East 283 326 6,100 -923 Descending FlightAware ADS-B
Fri 06:10:12 PM 29.8923 -95.4726 75° East 278 320 6,100 -600 Level FlightAware ADS-B
Fri 06:10:15 PM 29.8933 -95.4684 79° East 276 318 6,000 -545 Descending FlightAware ADS-B
Fri 06:10:23 PM 29.8954 -95.4561 86° East 270 311 6,000  Level FlightAware ADS-B
Fri 06:10:29 PM 29.8958 -95.4487 90° East 269 310 6,000 194 Level FlightAware ADS-B
Fri 06:10:54 PM 29.8959 -95.4125 90° East 270 311 6,100 125 Climbing FlightAware ADS-B
Fri 06:11:17 PM 29.8961 -95.3799 89° East 270 311 6,100  Level FlightAware ADS-B
Fri 06:11:34 PM 29.8963 -95.3548 90° East 269 310 6,100 -162 Level FlightAware ADS-B
Fri 06:11:54 PM 29.8964 -95.3263 90° East 258 297 6,000 -167 Descending FlightAware ADS-B
Fri 06:12:10 PM 29.8965 -95.3057 90° East 247 284 6,000  Level FlightAware ADS-B
Fri 06:12:26 PM 29.8966 -95.2852 90° East 241 277 6,000 133 Level FlightAware ADS-B
Fri 06:12:55 PM 29.8966 -95.2482 90° East 238 274 6,100 -273 Climbing FlightAware ADS-B
Fri 06:13:10 PM 29.8967 -95.2296 90° East 229 264 5,800 -1,400 Descending FlightAware ADS-B
Fri 06:13:25 PM 29.8968 -95.2118 90° East 234 269 5,400 -1,778 Descending FlightAware ADS-B
Fri 06:13:37 PM 29.8969 -95.1960 92° East 235 270 5,000 -1,034 Descending FlightAware ADS-B
Fri 06:13:54 PM 29.8966 -95.1843 90° East 229 264 4,900 -545 Descending FlightAware ADS-B
Fri 06:13:59 PM 29.8966 -95.1764 89° East 228 262 4,800 -2,000 Descending FlightAware ADS-B
Fri 06:14:03 PM 29.8967 -95.1678 83° East 226 260 4,600 -2,250 Descending FlightAware ADS-B
Fri 06:14:07 PM 29.8974 -95.1608 75° East 227 261 4,500 -1,500 Descending FlightAware ADS-B
Fri 06:14:11 PM 29.8984 -95.1565 69° East 228 262 4,400 -1,500 Descending FlightAware ADS-B
Fri 06:14:15 PM 29.8997 -95.1525 59° Northeast 230 265 4,300 -923 Descending FlightAware ADS-B
Fri 06:14:24 PM 29.9037 -95.1449 44° Northeast 233 268 4,200 -1,385 Descending FlightAware ADS-B
Fri 06:14:28 PM 29.9097 -95.1382 34° Northeast 237 273 4,000 -2,571 Descending FlightAware ADS-B
Fri 06:14:31 PM 29.9128 -95.1358 27° Northeast 238 274 3,900 -857 Descending FlightAware ADS-B
Fri 06:14:35 PM 29.9162 -95.1338 20° North 239 275 3,900 -750 Level FlightAware ADS-B
Fri 06:14:39 PM 29.9204 -95.1320 13° North 239 275 3,800 -1,500 Descending FlightAware ADS-B
Fri 06:14:43 PM 29.9247 -95.1309 North 239 275 3,700 -1,500 Descending FlightAware ADS-B
Fri 06:14:47 PM 29.9297 -95.1305 358° North 238 274 3,600 -1,500 Descending FlightAware ADS-B
Fri 06:14:51 PM 29.9337 -95.1307 350° North 236 272 3,500 -1,714 Descending FlightAware ADS-B
Fri 06:14:54 PM 29.9373 -95.1314 345° North 235 270 3,400 -1,714 Descending FlightAware ADS-B
Fri 06:14:58 PM 29.9409 -95.1325 338° Northwest 234 269 3,300 -1,714 Descending FlightAware ADS-B
Fri 06:15:01 PM 29.9445 -95.1342 332° Northwest 234 269 3,200 -2,000 Descending FlightAware ADS-B
Fri 06:15:04 PM 29.9473 -95.1359 325° Northwest 234 269 3,100 -1,714 Descending FlightAware ADS-B
Fri 06:15:08 PM 29.9504 -95.1384 318° Northwest 233 268 3,000 -1,500 Descending FlightAware ADS-B
Fri 06:15:12 PM 29.9539 -95.1421 312° West 229 264 2,900 -857 Descending FlightAware ADS-B
Fri 06:15:15 PM 29.9560 -95.1448 304° West 227 261 2,900 -1,000 Level FlightAware ADS-B
Fri 06:15:18 PM 29.9578 -95.1479 300° West 224 258 2,800 -1,714 Descending FlightAware ADS-B
Fri 06:15:22 PM 29.9596 -95.1515 294° West 221 254 2,700 -857 Descending FlightAware ADS-B
Fri 06:15:25 PM 29.9610 -95.1552 287° West 215 247 2,700 -1,200 Level FlightAware ADS-B
Fri 06:15:32 PM 29.9627 -95.1618 286° West 208 239 2,500 -1,286 Descending FlightAware ADS-B
Fri 06:15:39 PM 29.9647 -95.1698 287° West 203 234 2,400 -750 Descending FlightAware ADS-B
Fri 06:15:56 PM 29.9690 -95.1860 286° West 192 221 2,200 -857 Descending FlightAware ADS-B
Fri 06:16:07 PM 29.9717 -95.1969 287° West 184 212 2,000 -923 Descending FlightAware ADS-B
Fri 06:16:22 PM 29.9752 -95.2105 284° West 175 201 1,800 -900 Descending FlightAware ADS-B
Fri 06:16:27 PM 29.9762 -95.2150 279° West 173 199 1,700 -1,286 Descending FlightAware ADS-B
Fri 06:16:36 PM 29.9773 -95.2227 272° West 167 192 1,500 -1,059 Descending FlightAware ADS-B
Fri 06:16:44 PM 29.9775 -95.2298 269° West 164 189 1,400 -1,000 Descending FlightAware ADS-B
Fri 06:16:54 PM 29.9773 -95.2392 271° West 164 189 1,200 -900 Descending FlightAware ADS-B
Fri 06:17:04 PM 29.9774 -95.2479 273° West 166 191 1,100 -947 Descending FlightAware ADS-B
Fri 06:17:13 PM 29.9778 -95.2559 271° West 163 188 900 -1,000 Descending FlightAware ADS-B
Fri 06:17:22 PM 29.9779 -95.2633 269° West 162 186 800 -706 Descending FlightAware ADS-B
Fri 06:17:30 PM 29.9778 -95.2703 269° West 161 185 700 -800 Descending FlightAware ADS-B
Fri 06:17:37 PM 29.9777 -95.2763 270° West 163 188 600 -800 Descending FlightAware ADS-B
Fri 06:17:45 PM 29.9777 -95.2827 269° West 162 186 500 -800 Descending FlightAware ADS-B
Fri 06:17:52 PM 29.9776 -95.2892 270° West 161 185 400 -947 Descending FlightAware ADS-B
Fri 06:18:04 PM 29.9776 -95.2990 270° West 156 180 200 -1,000 Descending FlightAware ADS-B

Login

Don't have an account? Register now (free) for customized features, flight alerts, and more!